createdAt,value
2018-10-12T00:00:14.142Z,0.00
2018-10-12T00:01:14.133Z,0.00
2018-10-12T00:02:14.119Z,0.00
2018-10-12T00:03:14.108Z,0.00
2018-10-12T00:04:14.130Z,0.00
2018-10-12T00:05:14.090Z,0.00
2018-10-12T00:06:14.075Z,0.00
2018-10-12T00:07:14.063Z,0.00
2018-10-12T00:08:14.052Z,0.00
2018-10-12T00:09:14.064Z,0.00
2018-10-12T00:10:14.031Z,0.00
2018-10-12T00:11:14.024Z,0.00
2018-10-12T00:12:14.007Z,0.00
2018-10-12T00:13:13.997Z,0.00
2018-10-12T00:14:14.010Z,0.00
2018-10-12T00:15:13.974Z,0.00
2018-10-12T00:16:13.961Z,0.00
2018-10-12T00:17:13.956Z,0.00
2018-10-12T00:18:13.940Z,0.00
2018-10-12T00:19:13.952Z,0.00
2018-10-12T00:20:13.918Z,0.00
2018-10-12T00:21:13.905Z,0.00
2018-10-12T00:22:13.892Z,0.00
2018-10-12T00:23:13.900Z,0.00
2018-10-12T00:24:13.897Z,0.00
2018-10-12T00:25:13.861Z,0.00
2018-10-12T00:26:13.847Z,0.00
2018-10-12T00:27:13.838Z,0.00
2018-10-12T00:28:13.825Z,0.00
2018-10-12T00:29:13.849Z,0.00
2018-10-12T00:30:13.806Z,0.00
2018-10-12T00:31:13.792Z,0.00
2018-10-12T00:32:13.781Z,0.00
2018-10-12T00:33:13.773Z,0.00
2018-10-12T00:34:13.781Z,0.00
2018-10-12T00:35:13.753Z,0.00
2018-10-12T00:36:13.737Z,0.00
2018-10-12T00:37:13.723Z,0.00
2018-10-12T00:38:13.711Z,0.00
2018-10-12T00:39:13.706Z,0.00
2018-10-12T00:40:13.713Z,0.00
2018-10-12T00:41:13.684Z,0.00
2018-10-12T00:42:13.667Z,0.00
2018-10-12T00:43:13.655Z,0.00
2018-10-12T00:44:13.650Z,0.00
2018-10-12T00:45:13.658Z,0.00
2018-10-12T00:46:13.622Z,0.00
2018-10-12T00:47:13.609Z,0.00
2018-10-12T00:48:13.604Z,0.00
2018-10-12T00:49:13.590Z,0.00
2018-10-12T00:50:13.602Z,0.00
2018-10-12T00:51:13.564Z,0.00
2018-10-12T00:52:13.555Z,0.00
2018-10-12T00:53:13.544Z,0.00
2018-10-12T00:54:13.540Z,0.00
2018-10-12T00:55:13.545Z,0.00
2018-10-12T00:56:13.508Z,0.00
2018-10-12T00:57:13.502Z,0.00
2018-10-12T00:58:13.486Z,0.00
2018-10-12T00:59:13.481Z,0.00
2018-10-12T01:00:13.502Z,0.00
2018-10-12T01:01:13.454Z,0.00
2018-10-12T01:02:13.442Z,0.00
2018-10-12T01:03:13.431Z,0.00
2018-10-12T01:04:13.419Z,0.00
2018-10-12T01:05:13.430Z,0.00
2018-10-12T01:06:13.398Z,0.00
2018-10-12T01:07:13.393Z,0.00
2018-10-12T01:08:13.376Z,0.00
2018-10-12T01:09:13.361Z,0.00
2018-10-12T01:10:13.375Z,0.00
2018-10-12T01:11:13.341Z,0.00
2018-10-12T01:12:13.420Z,0.00
2018-10-12T01:13:13.327Z,0.00
2018-10-12T01:14:13.323Z,0.00
2018-10-12T01:15:13.331Z,0.00
2018-10-12T01:16:13.282Z,0.00
2018-10-12T01:17:13.273Z,0.00
2018-10-12T01:18:13.258Z,0.00
2018-10-12T01:19:13.255Z,0.00
2018-10-12T01:20:13.260Z,0.00
2018-10-12T01:21:13.225Z,0.00
2018-10-12T01:22:13.213Z,0.00
2018-10-12T01:23:13.206Z,0.00
2018-10-12T01:24:13.194Z,0.00
2018-10-12T01:25:13.212Z,0.00
2018-10-12T01:26:13.168Z,0.00
2018-10-12T01:27:13.159Z,0.00
2018-10-12T01:28:13.146Z,0.00
2018-10-12T01:29:13.135Z,0.00
2018-10-12T01:30:13.147Z,0.00
2018-10-12T01:31:13.116Z,0.00
2018-10-12T01:32:13.099Z,0.00
2018-10-12T01:33:13.088Z,0.00
2018-10-12T01:34:13.077Z,0.00
2018-10-12T01:35:13.095Z,0.00
2018-10-12T01:36:13.056Z,0.00
2018-10-12T01:37:13.055Z,0.00
2018-10-12T01:38:13.033Z,0.00
2018-10-12T01:39:13.021Z,0.00
2018-10-12T01:40:13.035Z,0.00
2018-10-12T01:41:13.000Z,0.00
2018-10-12T01:42:12.986Z,0.00
2018-10-12T01:43:12.986Z,0.00
2018-10-12T01:44:19.983Z,0.00
2018-10-12T01:45:12.979Z,0.00
2018-10-12T01:46:12.943Z,0.00
2018-10-12T01:47:12.929Z,0.00
2018-10-12T01:48:12.921Z,0.00
2018-10-12T01:49:12.909Z,0.00
2018-10-12T01:50:12.921Z,0.00
2018-10-12T01:51:12.895Z,0.00
2018-10-12T01:52:12.875Z,0.00
2018-10-12T01:53:12.864Z,0.00
2018-10-12T01:54:12.858Z,0.00
2018-10-12T01:55:12.864Z,0.00
2018-10-12T01:56:12.830Z,0.00
2018-10-12T01:57:12.819Z,0.00
2018-10-12T01:58:12.806Z,0.00
2018-10-12T01:59:12.810Z,0.00
2018-10-12T02:00:12.810Z,0.00
2018-10-12T02:01:12.775Z,0.00
2018-10-12T02:02:12.761Z,0.00
2018-10-12T02:03:12.751Z,0.00
2018-10-12T02:04:12.741Z,0.00
2018-10-12T02:05:12.760Z,0.00
2018-10-12T02:06:12.716Z,0.00
2018-10-12T02:07:12.703Z,0.00
2018-10-12T02:08:12.694Z,0.00
2018-10-12T02:09:12.686Z,0.00
2018-10-12T02:10:12.696Z,0.00
2018-10-12T02:11:12.667Z,0.00
2018-10-12T02:12:12.649Z,0.00
2018-10-12T02:13:12.636Z,0.00
2018-10-12T02:14:12.626Z,0.00
2018-10-12T02:15:12.638Z,0.00
2018-10-12T02:16:12.604Z,0.00
2018-10-12T02:17:12.594Z,0.00
2018-10-12T02:18:12.581Z,0.00
2018-10-12T02:19:12.569Z,0.00
2018-10-12T02:20:12.581Z,0.00
2018-10-12T02:21:12.546Z,0.00
2018-10-12T02:22:12.535Z,0.00
2018-10-12T02:23:12.531Z,0.00
2018-10-12T02:24:12.549Z,0.00
2018-10-12T02:25:12.527Z,0.00
2018-10-12T02:26:12.492Z,0.00
2018-10-12T02:27:12.480Z,0.00
2018-10-12T02:28:12.468Z,0.00
2018-10-12T02:29:12.462Z,0.00
2018-10-12T02:30:12.471Z,0.00
2018-10-12T02:31:12.434Z,0.00
2018-10-12T02:32:12.421Z,0.00
2018-10-12T02:33:12.411Z,0.00
2018-10-12T02:34:12.400Z,0.00
2018-10-12T02:35:12.413Z,0.00
2018-10-12T02:36:12.387Z,0.00
2018-10-12T02:37:12.364Z,0.00
2018-10-12T02:38:12.356Z,0.00
2018-10-12T02:39:12.345Z,0.00
2018-10-12T02:40:12.355Z,0.00
2018-10-12T02:41:12.319Z,0.00
2018-10-12T02:42:12.319Z,0.00
2018-10-12T02:43:12.295Z,0.00
2018-10-12T02:44:12.286Z,0.00
2018-10-12T02:45:12.299Z,0.00
2018-10-12T02:46:12.263Z,0.00
2018-10-12T02:47:12.254Z,0.00
2018-10-12T02:48:12.251Z,0.00
2018-10-12T02:49:12.232Z,0.00
2018-10-12T02:50:12.218Z,0.00
2018-10-12T02:51:12.232Z,0.00
2018-10-12T02:52:12.198Z,0.00
2018-10-12T02:53:12.187Z,0.00
2018-10-12T02:54:12.180Z,0.00
2018-10-12T02:55:12.188Z,0.00
2018-10-12T02:56:12.153Z,0.00
2018-10-12T02:57:12.143Z,0.00
2018-10-12T02:58:12.128Z,0.00
2018-10-12T02:59:12.116Z,0.00
2018-10-12T03:00:12.113Z,0.00
2018-10-12T03:01:12.120Z,0.00
2018-10-12T03:02:12.081Z,0.00
2018-10-12T03:03:12.071Z,0.00
2018-10-12T03:04:19.079Z,0.00
2018-10-12T03:05:12.052Z,0.00
2018-10-12T03:06:12.176Z,0.00
2018-10-12T03:07:12.024Z,0.00
2018-10-12T03:08:12.014Z,0.00
2018-10-12T03:09:12.002Z,0.00
2018-10-12T03:10:11.994Z,0.00
2018-10-12T03:11:12.011Z,0.00
2018-10-12T03:12:11.970Z,0.00
2018-10-12T03:13:11.960Z,0.00
2018-10-12T03:14:11.955Z,0.00
2018-10-12T03:15:11.939Z,0.00
2018-10-12T03:16:11.948Z,0.00
2018-10-12T03:17:11.910Z,0.00
2018-10-12T03:18:11.901Z,0.00
2018-10-12T03:19:11.890Z,0.00
2018-10-12T03:20:11.882Z,0.00
2018-10-12T03:21:11.900Z,0.00
2018-10-12T03:22:11.858Z,0.00
2018-10-12T03:23:11.845Z,0.00
2018-10-12T03:24:11.833Z,0.00
2018-10-12T03:25:11.820Z,0.00
2018-10-12T03:26:11.837Z,0.00
2018-10-12T03:27:11.805Z,0.00
2018-10-12T03:28:11.789Z,0.00
2018-10-12T03:29:11.775Z,0.00
2018-10-12T03:30:11.767Z,0.00
2018-10-12T03:31:11.778Z,0.00
2018-10-12T03:32:11.741Z,0.00
2018-10-12T03:33:11.743Z,0.00
2018-10-12T03:34:11.717Z,0.00
2018-10-12T03:35:11.707Z,0.00
2018-10-12T03:36:11.722Z,0.00
2018-10-12T03:37:11.773Z,0.00
2018-10-12T03:38:11.674Z,0.00
2018-10-12T03:39:11.674Z,0.00
2018-10-12T03:40:11.651Z,0.00
2018-10-12T03:41:11.665Z,0.00
2018-10-12T03:42:11.628Z,0.00
2018-10-12T03:43:11.616Z,0.00
2018-10-12T03:44:11.607Z,0.00
2018-10-12T03:45:11.602Z,0.00
2018-10-12T03:46:11.607Z,0.00
2018-10-12T03:47:11.612Z,0.00
2018-10-12T03:48:11.560Z,0.00
2018-10-12T03:49:11.551Z,0.00
2018-10-12T03:50:11.537Z,0.00
2018-10-12T03:51:11.562Z,0.00
2018-10-12T03:52:11.516Z,0.00
2018-10-12T03:53:11.509Z,0.00
2018-10-12T03:54:11.495Z,0.00
2018-10-12T03:55:11.480Z,0.00
2018-10-12T03:56:11.495Z,0.00
2018-10-12T03:57:11.464Z,0.00
2018-10-12T03:58:11.454Z,0.00
2018-10-12T03:59:11.440Z,0.00
2018-10-12T04:00:11.434Z,0.00
2018-10-12T04:01:11.442Z,0.00
2018-10-12T04:02:11.404Z,0.00
2018-10-12T04:03:11.390Z,0.00
2018-10-12T04:04:11.380Z,0.00
2018-10-12T04:05:11.368Z,0.00
2018-10-12T04:06:11.386Z,0.00
2018-10-12T04:07:11.345Z,0.00
2018-10-12T04:08:11.337Z,0.00
2018-10-12T04:09:11.324Z,0.00
2018-10-12T04:10:11.316Z,0.00
2018-10-12T04:11:11.327Z,0.00
2018-10-12T04:12:11.311Z,0.00
2018-10-12T04:13:11.276Z,0.00
2018-10-12T04:14:11.270Z,0.00
2018-10-12T04:15:11.259Z,0.00
2018-10-12T04:16:11.278Z,0.00
2018-10-12T04:17:11.234Z,0.00
2018-10-12T04:18:11.230Z,0.00
2018-10-12T04:19:11.209Z,0.00
2018-10-12T04:20:11.199Z,0.00
2018-10-12T04:21:11.212Z,0.00
2018-10-12T04:22:11.177Z,0.00
2018-10-12T04:23:11.164Z,0.00
2018-10-12T04:24:11.159Z,0.00
2018-10-12T04:25:11.145Z,0.00
2018-10-12T04:26:11.154Z,0.00
2018-10-12T04:27:11.120Z,0.00
2018-10-12T04:28:11.107Z,0.00
2018-10-12T04:29:11.095Z,0.00
2018-10-12T04:30:11.094Z,0.00
2018-10-12T04:31:11.104Z,0.00
2018-10-12T04:32:11.063Z,0.00
2018-10-12T04:33:11.055Z,0.00
2018-10-12T04:34:11.041Z,0.00
2018-10-12T04:35:11.028Z,0.00
2018-10-12T04:36:11.049Z,0.00
2018-10-12T04:37:11.005Z,0.00
2018-10-12T04:38:10.998Z,0.00
2018-10-12T04:39:10.986Z,0.00
2018-10-12T04:40:10.973Z,0.00
2018-10-12T04:41:10.984Z,0.00
2018-10-12T04:42:10.957Z,0.00
2018-10-12T04:43:10.942Z,0.00
2018-10-12T04:44:10.929Z,0.00
2018-10-12T04:45:10.915Z,0.00
2018-10-12T04:46:10.930Z,0.00
2018-10-12T04:47:10.925Z,0.00
2018-10-12T04:48:10.890Z,0.00
2018-10-12T04:49:10.872Z,0.00
2018-10-12T04:50:10.858Z,0.00
2018-10-12T04:51:10.873Z,0.00
2018-10-12T04:52:10.837Z,0.00
2018-10-12T04:53:10.824Z,0.00
2018-10-12T04:54:10.831Z,0.00
2018-10-12T04:55:10.810Z,0.00
2018-10-12T04:56:10.819Z,0.00
2018-10-12T04:57:17.801Z,0.00
2018-10-12T04:58:10.766Z,0.00
2018-10-12T04:59:10.761Z,0.00
2018-10-12T05:00:10.751Z,0.00
2018-10-12T05:01:10.856Z,0.00
2018-10-12T05:02:10.723Z,0.00
2018-10-12T05:03:10.711Z,0.00
2018-10-12T05:04:10.705Z,0.00
2018-10-12T05:05:10.688Z,0.00
2018-10-12T05:06:10.679Z,0.00
2018-10-12T05:07:10.697Z,0.00
2018-10-12T05:08:10.657Z,0.00
2018-10-12T05:09:10.645Z,0.00
2018-10-12T05:10:10.638Z,0.00
2018-10-12T05:11:10.639Z,0.00
2018-10-12T05:12:10.635Z,0.00
2018-10-12T05:13:10.600Z,0.00
2018-10-12T05:14:10.588Z,0.00
2018-10-12T05:15:10.579Z,0.00
2018-10-12T05:16:10.565Z,0.00
2018-10-12T05:17:10.576Z,0.00
2018-10-12T05:18:10.541Z,0.00
2018-10-12T05:19:10.531Z,0.00
2018-10-12T05:20:10.518Z,4.00
2018-10-12T05:21:10.507Z,4.00
2018-10-12T05:22:10.638Z,0.00
2018-10-12T05:23:10.483Z,4.00
2018-10-12T05:24:10.480Z,4.00
2018-10-12T05:25:10.461Z,4.00
2018-10-12T05:26:10.451Z,4.00
2018-10-12T05:27:10.469Z,4.00
2018-10-12T05:28:10.436Z,8.00
2018-10-12T05:29:10.418Z,12.00
2018-10-12T05:30:10.439Z,8.00
2018-10-12T05:31:10.394Z,12.00
2018-10-12T05:32:10.406Z,16.00
2018-10-12T05:33:10.376Z,20.00
2018-10-12T05:34:10.363Z,20.00
2018-10-12T05:35:10.354Z,28.00
2018-10-12T05:36:10.394Z,36.00
2018-10-12T05:37:10.349Z,40.00
2018-10-12T05:38:10.313Z,48.00
2018-10-12T05:39:10.307Z,60.00
2018-10-12T05:40:10.300Z,72.00
2018-10-12T05:41:10.279Z,84.00
2018-10-12T05:42:10.299Z,96.00
2018-10-12T05:43:10.358Z,108.00
2018-10-12T05:44:10.247Z,120.00
2018-10-12T05:45:10.244Z,136.00
2018-10-12T05:46:10.232Z,152.00
2018-10-12T05:47:10.238Z,164.00
2018-10-12T05:48:10.202Z,184.00
2018-10-12T05:49:10.190Z,204.00
2018-10-12T05:50:10.181Z,224.00
2018-10-12T05:51:10.168Z,244.00
2018-10-12T05:52:10.186Z,272.00
2018-10-12T05:53:10.152Z,296.00
2018-10-12T05:54:10.134Z,324.00
2018-10-12T05:55:10.124Z,348.00
2018-10-12T05:56:10.113Z,380.00
2018-10-12T05:57:10.123Z,412.00
2018-10-12T05:58:10.097Z,440.00
2018-10-12T05:59:10.077Z,476.00
2018-10-12T06:00:10.070Z,508.00
2018-10-12T06:01:10.075Z,544.00
2018-10-12T06:02:10.066Z,580.00
2018-10-12T06:03:10.032Z,612.00
2018-10-12T06:04:10.025Z,652.00
2018-10-12T06:05:10.008Z,700.00
2018-10-12T06:06:09.996Z,696.00
2018-10-12T06:07:10.015Z,732.00
2018-10-12T06:08:09.980Z,768.00
2018-10-12T06:09:09.965Z,804.00
2018-10-12T06:10:10.130Z,844.00
2018-10-12T06:11:09.979Z,884.00
2018-10-12T06:12:09.955Z,924.00
2018-10-12T06:13:09.917Z,968.00
2018-10-12T06:14:09.909Z,916.00
2018-10-12T06:15:09.894Z,1136.00
2018-10-12T06:16:09.884Z,1180.00
2018-10-12T06:17:09.906Z,1196.00
2018-10-12T06:18:11.803Z,1256.00
2018-10-12T06:19:09.849Z,1344.00
2018-10-12T06:20:09.838Z,1400.00
2018-10-12T06:21:09.846Z,1420.00
2018-10-12T06:22:09.841Z,1440.00
2018-10-12T06:23:09.804Z,1504.00
2018-10-12T06:24:09.813Z,1592.00
2018-10-12T06:25:09.784Z,1652.00
2018-10-12T06:26:09.771Z,1704.00
2018-10-12T06:27:09.786Z,1736.00
2018-10-12T06:28:09.747Z,1764.00
2018-10-12T06:29:09.762Z,1788.00
2018-10-12T06:30:09.725Z,1788.00
2018-10-12T06:31:09.714Z,1800.00
2018-10-12T06:32:09.728Z,1800.00
2018-10-12T06:33:09.691Z,1816.00
2018-10-12T06:34:09.681Z,1848.00
2018-10-12T06:35:09.680Z,1900.00
2018-10-12T06:36:09.664Z,1936.00
2018-10-12T06:37:09.671Z,1908.00
2018-10-12T06:38:09.634Z,1788.00
2018-10-12T06:39:09.628Z,1752.00
2018-10-12T06:40:09.613Z,1712.00
2018-10-12T06:41:09.623Z,1676.00
2018-10-12T06:42:09.613Z,1680.00
2018-10-12T06:43:09.577Z,1724.00
2018-10-12T06:44:09.568Z,1796.00
2018-10-12T06:45:09.555Z,1876.00
2018-10-12T06:46:09.559Z,1940.00
2018-10-12T06:47:09.541Z,1944.00
2018-10-12T06:48:09.545Z,1896.00
2018-10-12T06:49:09.516Z,1800.00
2018-10-12T06:50:09.499Z,1784.00
2018-10-12T06:51:09.487Z,1804.00
2018-10-12T06:52:09.478Z,1820.00
2018-10-12T06:53:09.489Z,1820.00
2018-10-12T06:54:09.522Z,1836.00
2018-10-12T06:55:09.452Z,1868.00
2018-10-12T06:56:09.434Z,1924.00
2018-10-12T06:57:09.425Z,2004.00
2018-10-12T06:58:09.435Z,2036.00
2018-10-12T06:59:09.398Z,2204.00
2018-10-12T07:00:09.387Z,2212.00
2018-10-12T07:01:09.381Z,2228.00
2018-10-12T07:02:09.380Z,2228.00
2018-10-12T07:03:09.384Z,2244.00
2018-10-12T07:04:09.340Z,2264.00
2018-10-12T07:05:09.336Z,2268.00
2018-10-12T07:06:09.317Z,2288.00
2018-10-12T07:07:09.308Z,2304.00
2018-10-12T07:08:09.322Z,2324.00
2018-10-12T07:09:09.284Z,2324.00
2018-10-12T07:10:09.271Z,2284.00
2018-10-12T07:11:09.281Z,2044.00
2018-10-12T07:12:09.250Z,2044.00
2018-10-12T07:13:09.263Z,2060.00
2018-10-12T07:14:09.529Z,2116.00
2018-10-12T07:15:09.216Z,2152.00
2018-10-12T07:16:09.207Z,2332.00
2018-10-12T07:17:09.201Z,2424.00
2018-10-12T07:18:09.210Z,2388.00
2018-10-12T07:19:09.171Z,2120.00
2018-10-12T07:20:09.161Z,2064.00
2018-10-12T07:21:09.151Z,2028.00
2018-10-12T07:22:09.150Z,2028.00
2018-10-12T07:23:09.149Z,2064.00
2018-10-12T07:24:09.118Z,2144.00
2018-10-12T07:25:09.118Z,2260.00
2018-10-12T07:26:09.091Z,2428.00
2018-10-12T07:27:09.097Z,2652.00
2018-10-12T07:28:09.094Z,2832.00
2018-10-12T07:29:09.076Z,2852.00
2018-10-12T07:30:09.055Z,2872.00
2018-10-12T07:31:09.041Z,2948.00
2018-10-12T07:32:09.024Z,3104.00
2018-10-12T07:33:09.036Z,3244.00
2018-10-12T07:34:08.999Z,3264.00
2018-10-12T07:35:08.995Z,2328.00
2018-10-12T07:36:09.007Z,3228.00
2018-10-12T07:37:09.000Z,2620.00
2018-10-12T07:38:08.978Z,3116.00
2018-10-12T07:39:08.972Z,3172.00
2018-10-12T07:40:08.952Z,3252.00
2018-10-12T07:41:08.926Z,3272.00
2018-10-12T07:42:08.909Z,3304.00
2018-10-12T07:43:08.935Z,3324.00
2018-10-12T07:44:08.888Z,3404.00
2018-10-12T07:45:08.875Z,3472.00
2018-10-12T07:46:08.897Z,3444.00
2018-10-12T07:47:08.900Z,3440.00
2018-10-12T07:48:08.981Z,3464.00
2018-10-12T07:49:08.838Z,3520.00
2018-10-12T07:50:08.820Z,3608.00
2018-10-12T07:51:08.832Z,3708.00
2018-10-12T07:52:08.796Z,3764.00
2018-10-12T07:53:08.822Z,3748.00
2018-10-12T07:54:08.781Z,3716.00
2018-10-12T07:55:08.763Z,3612.00
2018-10-12T07:56:08.751Z,3412.00
2018-10-12T07:57:08.740Z,3400.00
2018-10-12T07:58:08.764Z,3352.00
2018-10-12T07:59:08.723Z,3424.00
2018-10-12T08:00:08.800Z,3500.00
2018-10-12T08:01:08.731Z,3688.00
2018-10-12T08:02:08.686Z,3916.00
2018-10-12T08:03:08.695Z,4048.00
2018-10-12T08:04:08.677Z,3924.00
2018-10-12T08:05:08.650Z,3772.00
2018-10-12T08:06:08.645Z,3676.00
2018-10-12T08:07:08.633Z,3692.00
2018-10-12T08:08:08.644Z,3816.00
2018-10-12T08:09:08.606Z,3976.00
2018-10-12T08:10:08.595Z,4200.00
2018-10-12T08:11:08.592Z,4328.00
2018-10-12T08:12:08.588Z,4412.00
2018-10-12T08:13:08.583Z,4468.00
2018-10-12T08:14:08.646Z,4124.00
2018-10-12T08:15:08.540Z,4512.00
2018-10-12T08:16:08.560Z,4608.00
2018-10-12T08:17:08.524Z,4772.00
2018-10-12T08:18:08.572Z,4888.00
2018-10-12T08:19:08.492Z,5008.00
2018-10-12T08:20:08.508Z,5004.00
2018-10-12T08:21:08.469Z,5016.00
2018-10-12T08:22:08.467Z,5028.00
2018-10-12T08:23:08.477Z,5024.00
2018-10-12T08:24:08.436Z,5440.00
2018-10-12T08:25:08.430Z,5088.00
2018-10-12T08:26:08.434Z,5136.00
2018-10-12T08:27:08.462Z,5192.00
2018-10-12T08:28:08.421Z,5240.00
2018-10-12T08:29:08.402Z,5308.00
2018-10-12T08:30:08.368Z,5172.00
2018-10-12T08:31:08.483Z,5044.00
2018-10-12T08:32:08.389Z,4984.00
2018-10-12T08:33:08.375Z,5092.00
2018-10-12T08:34:08.327Z,5264.00
2018-10-12T08:35:08.319Z,5568.00
2018-10-12T08:36:08.309Z,5784.00
2018-10-12T08:37:08.300Z,6048.00
2018-10-12T08:38:08.332Z,6072.00
2018-10-12T08:39:08.267Z,6128.00
2018-10-12T08:40:08.256Z,6008.00
2018-10-12T08:41:08.245Z,5812.00
2018-10-12T08:42:08.232Z,5564.00
2018-10-12T08:43:08.246Z,5268.00
2018-10-12T08:44:08.208Z,4988.00
2018-10-12T08:45:08.256Z,4844.00
2018-10-12T08:46:08.263Z,4784.00
2018-10-12T08:47:08.176Z,4664.00
2018-10-12T08:48:08.167Z,4640.00
2018-10-12T08:49:08.176Z,4408.00
2018-10-12T08:50:08.146Z,5304.00
2018-10-12T08:51:08.168Z,5376.00
2018-10-12T08:52:08.126Z,6120.00
2018-10-12T08:53:08.178Z,6188.00
2018-10-12T08:54:08.121Z,6184.00
2018-10-12T08:55:08.085Z,6500.00
2018-10-12T08:56:08.074Z,6092.00
2018-10-12T08:57:08.119Z,5884.00
2018-10-12T08:58:08.059Z,5820.00
2018-10-12T08:59:08.064Z,5824.00
2018-10-12T09:00:08.031Z,5948.00
2018-10-12T09:01:08.053Z,6552.00
2018-10-12T09:02:08.009Z,6544.00
2018-10-12T09:03:08.095Z,6220.00
2018-10-12T09:04:08.009Z,6124.00
2018-10-12T09:05:07.975Z,6556.00
2018-10-12T09:06:07.964Z,6160.00
2018-10-12T09:07:07.951Z,6152.00
2018-10-12T09:08:07.957Z,5492.00
2018-10-12T09:09:07.952Z,6648.00
2018-10-12T09:10:07.916Z,6564.00
2018-10-12T09:11:07.908Z,6568.00
2018-10-12T09:12:07.904Z,6572.00
2018-10-12T09:13:07.886Z,6276.00
2018-10-12T09:14:07.913Z,6180.00
2018-10-12T09:15:07.862Z,6004.00
2018-10-12T09:16:07.907Z,5872.00
2018-10-12T09:17:07.840Z,5868.00
2018-10-12T09:18:07.856Z,5740.00
2018-10-12T09:19:07.843Z,5500.00
2018-10-12T09:20:07.917Z,5292.00
2018-10-12T09:21:07.845Z,5548.00
2018-10-12T09:22:07.781Z,5324.00
2018-10-12T09:23:07.776Z,5140.00
2018-10-12T09:24:07.785Z,5116.00
2018-10-12T09:25:07.748Z,5152.00
2018-10-12T09:26:07.740Z,5236.00
2018-10-12T09:27:07.755Z,5344.00
2018-10-12T09:28:07.731Z,5464.00
2018-10-12T09:29:07.733Z,5624.00
2018-10-12T09:30:07.740Z,5752.00
2018-10-12T09:31:07.683Z,5748.00
2018-10-12T09:32:07.675Z,5564.00
2018-10-12T09:33:07.675Z,5296.00
2018-10-12T09:34:07.673Z,4736.00
2018-10-12T09:35:07.677Z,4524.00
2018-10-12T09:36:07.638Z,4308.00
2018-10-12T09:37:07.666Z,4444.00
2018-10-12T09:38:07.639Z,4352.00
2018-10-12T09:39:07.642Z,4364.00
2018-10-12T09:40:07.581Z,4356.00
2018-10-12T09:41:07.572Z,4364.00
2018-10-12T09:42:07.613Z,4332.00
2018-10-12T09:43:07.558Z,4316.00
2018-10-12T09:44:07.561Z,4304.00
2018-10-12T09:45:07.531Z,4344.00
2018-10-12T09:46:07.536Z,4496.00
2018-10-12T09:47:07.517Z,5028.00
2018-10-12T09:48:07.491Z,5564.00
2018-10-12T09:49:07.522Z,5684.00
2018-10-12T09:50:07.475Z,5384.00
2018-10-12T09:51:07.457Z,5204.00
2018-10-12T09:52:07.459Z,5460.00
2018-10-12T09:53:07.442Z,6044.00
2018-10-12T09:54:07.447Z,6368.00
2018-10-12T09:55:07.426Z,6160.00
2018-10-12T09:56:07.402Z,6144.00
2018-10-12T09:57:07.395Z,6084.00
2018-10-12T09:58:07.394Z,6196.00
2018-10-12T09:59:07.395Z,6324.00
2018-10-12T10:00:07.758Z,6532.00
2018-10-12T10:01:07.345Z,6736.00
2018-10-12T10:02:07.341Z,7244.00
2018-10-12T10:03:07.325Z,7092.00
2018-10-12T10:04:07.350Z,7456.00
2018-10-12T10:05:07.302Z,7700.00
2018-10-12T10:06:07.291Z,7564.00
2018-10-12T10:07:07.289Z,7524.00
2018-10-12T10:08:07.396Z,7480.00
2018-10-12T10:09:07.438Z,7780.00
2018-10-12T10:10:07.263Z,7736.00
2018-10-12T10:11:07.234Z,7924.00
2018-10-12T10:12:07.221Z,7960.00
2018-10-12T10:13:07.215Z,7860.00
2018-10-12T10:14:07.222Z,8244.00
2018-10-12T10:15:07.191Z,8296.00
2018-10-12T10:16:07.175Z,7848.00
2018-10-12T10:17:07.166Z,7288.00
2018-10-12T10:18:07.164Z,7468.00
2018-10-12T10:19:07.202Z,7540.00
2018-10-12T10:20:07.130Z,8080.00
2018-10-12T10:21:07.128Z,7460.00
2018-10-12T10:22:07.109Z,6616.00
2018-10-12T10:23:07.097Z,5932.00
2018-10-12T10:24:07.109Z,5704.00
2018-10-12T10:25:07.159Z,5560.00
2018-10-12T10:26:07.229Z,5172.00
2018-10-12T10:27:07.089Z,5676.00
2018-10-12T10:28:07.040Z,5256.00
2018-10-12T10:29:07.104Z,4764.00
2018-10-12T10:30:07.025Z,4032.00
2018-10-12T10:31:07.005Z,4404.00
2018-10-12T10:32:07.067Z,4396.00
2018-10-12T10:33:07.016Z,3800.00
2018-10-12T10:34:07.031Z,3832.00
2018-10-12T10:35:06.962Z,3716.00
2018-10-12T10:36:06.951Z,3892.00
2018-10-12T10:37:06.953Z,3764.00
2018-10-12T10:38:06.928Z,4208.00
2018-10-12T10:39:06.997Z,4428.00
2018-10-12T10:40:06.907Z,4432.00
2018-10-12T10:41:06.949Z,4424.00
2018-10-12T10:42:06.902Z,4420.00
2018-10-12T10:43:06.877Z,4412.00
2018-10-12T10:44:06.868Z,4408.00
2018-10-12T10:45:06.877Z,4376.00
2018-10-12T10:46:06.843Z,4340.00
2018-10-12T10:47:06.826Z,4220.00
2018-10-12T10:48:06.821Z,4156.00
2018-10-12T10:49:06.941Z,4104.00
2018-10-12T10:50:06.792Z,4028.00
2018-10-12T10:51:06.781Z,4004.00
2018-10-12T10:52:06.782Z,3972.00
2018-10-12T10:53:06.763Z,4012.00
2018-10-12T10:54:06.752Z,4084.00
2018-10-12T10:55:06.759Z,4220.00
2018-10-12T10:56:06.726Z,4324.00
2018-10-12T10:57:06.722Z,4368.00
2018-10-12T10:58:06.716Z,4464.00
2018-10-12T10:59:06.692Z,4564.00
2018-10-12T11:00:06.705Z,4736.00
2018-10-12T11:01:06.674Z,4904.00
2018-10-12T11:02:06.660Z,5072.00
2018-10-12T11:03:06.647Z,5188.00
2018-10-12T11:04:06.640Z,5500.00
2018-10-12T11:05:06.651Z,5596.00
2018-10-12T11:06:06.666Z,5696.00
2018-10-12T11:07:06.602Z,5792.00
2018-10-12T11:08:06.590Z,5872.00
2018-10-12T11:09:06.581Z,5980.00
2018-10-12T11:10:06.592Z,6064.00
2018-10-12T11:11:06.558Z,6156.00
2018-10-12T11:12:06.573Z,6244.00
2018-10-12T11:13:06.634Z,6360.00
2018-10-12T11:14:06.533Z,6476.00
2018-10-12T11:15:06.546Z,6580.00
2018-10-12T11:16:06.502Z,6708.00
2018-10-12T11:17:06.489Z,6824.00
2018-10-12T11:18:06.493Z,6936.00
2018-10-12T11:19:06.471Z,7064.00
2018-10-12T11:20:06.503Z,7184.00
2018-10-12T11:21:06.456Z,7276.00
2018-10-12T11:22:06.433Z,7380.00
2018-10-12T11:23:06.426Z,7472.00
2018-10-12T11:24:06.413Z,7572.00
2018-10-12T11:25:06.424Z,7648.00
2018-10-12T11:26:06.407Z,7748.00
2018-10-12T11:27:06.384Z,7880.00
2018-10-12T11:28:06.394Z,8076.00
2018-10-12T11:29:06.356Z,8296.00
2018-10-12T11:30:06.375Z,8488.00
2018-10-12T11:31:06.336Z,9152.00
2018-10-12T11:32:06.326Z,10440.00
2018-10-12T11:33:06.319Z,13688.00
2018-10-12T11:34:06.334Z,19872.00
2018-10-12T11:35:06.313Z,22336.00
2018-10-12T11:36:06.279Z,19968.00
2018-10-12T11:37:06.266Z,19200.00
2018-10-12T11:38:06.253Z,22944.00
2018-10-12T11:39:06.244Z,25504.00
2018-10-12T11:40:06.282Z,22464.00
2018-10-12T11:41:06.220Z,22592.00
2018-10-12T11:42:06.212Z,24992.00
2018-10-12T11:43:06.202Z,30880.00
2018-10-12T11:44:06.191Z,29600.00
2018-10-12T11:45:06.331Z,29824.00
2018-10-12T11:46:06.169Z,29152.00
2018-10-12T11:47:06.203Z,39232.00
2018-10-12T11:48:06.152Z,44000.00
2018-10-12T11:49:06.135Z,33120.00
2018-10-12T11:50:06.148Z,21792.00
2018-10-12T11:51:06.144Z,18048.00
2018-10-12T11:52:06.160Z,17056.00
2018-10-12T11:53:06.089Z,16096.00
2018-10-12T11:54:06.079Z,15552.00
2018-10-12T11:55:06.100Z,15388.00
2018-10-12T11:56:06.089Z,15456.00
2018-10-12T11:57:06.049Z,15012.00
2018-10-12T11:58:06.036Z,15480.00
2018-10-12T11:59:06.026Z,18016.00
2018-10-12T12:00:06.033Z,27520.00
2018-10-12T12:01:06.259Z,34496.00
2018-10-12T12:02:06.047Z,34944.00
2018-10-12T12:03:05.985Z,37568.00
2018-10-12T12:04:05.971Z,40704.00
2018-10-12T12:05:05.962Z,40768.00
2018-10-12T12:06:05.970Z,38656.00
2018-10-12T12:07:05.966Z,32640.00
2018-10-12T12:08:05.938Z,38816.00
2018-10-12T12:09:05.916Z,43104.00
2018-10-12T12:10:05.905Z,44000.00
2018-10-12T12:11:05.927Z,42592.00
2018-10-12T12:12:05.906Z,44672.00
2018-10-12T12:13:05.872Z,45760.00
2018-10-12T12:14:06.005Z,46720.00
2018-10-12T12:15:05.854Z,46784.00
2018-10-12T12:16:05.863Z,44896.00
2018-10-12T12:17:05.833Z,44192.00
2018-10-12T12:18:05.834Z,44288.00
2018-10-12T12:19:05.844Z,44064.00
2018-10-12T12:20:05.809Z,45792.00
2018-10-12T12:21:05.814Z,40544.00
2018-10-12T12:22:05.782Z,46560.00
2018-10-12T12:23:05.769Z,54880.00
2018-10-12T12:24:05.754Z,49376.00
2018-10-12T12:25:05.745Z,46880.00
2018-10-12T12:26:05.759Z,46016.00
2018-10-12T12:27:05.735Z,49344.00
2018-10-12T12:28:05.712Z,47584.00
2018-10-12T12:29:05.703Z,44416.00
2018-10-12T12:30:05.718Z,40640.00
2018-10-12T12:31:05.711Z,44640.00
2018-10-12T12:32:05.686Z,44800.00
2018-10-12T12:33:05.661Z,46944.00
2018-10-12T12:34:05.715Z,50240.00
2018-10-12T12:35:05.830Z,51232.00